createdAt,value
2023-03-27T00:00:59.750Z,100984.72
2023-03-27T00:03:26.182Z,100983.63
2023-03-27T00:05:52.586Z,100993.19
2023-03-27T00:08:18.897Z,100993.41
2023-03-27T00:10:45.191Z,100998.97
2023-03-27T00:13:11.557Z,101014.78
2023-03-27T00:15:37.937Z,101024.16
2023-03-27T00:18:04.382Z,101030.78
2023-03-27T00:20:30.770Z,101032.53
2023-03-27T00:22:57.148Z,101039.41
2023-03-27T00:25:23.536Z,101044.41
2023-03-27T00:27:49.889Z,101044.06
2023-03-27T00:30:16.228Z,101056.44
2023-03-27T00:32:42.551Z,101062.56
2023-03-27T00:35:08.916Z,101075.31
2023-03-27T00:37:35.261Z,101081.84
2023-03-27T00:40:01.625Z,101090.09
2023-03-27T00:42:27.942Z,101088.34
2023-03-27T00:44:54.288Z,101086.81
2023-03-27T00:47:20.617Z,101103.75
2023-03-27T00:49:46.966Z,101097.72
2023-03-27T00:52:13.289Z,101102.63
2023-03-27T00:54:39.647Z,101102.72
2023-03-27T00:57:06.058Z,101099.22
2023-03-27T00:59:32.420Z,101101.66
2023-03-27T01:01:58.881Z,101114.59
2023-03-27T01:04:25.448Z,101117.34
2023-03-27T01:06:51.754Z,101115.06
2023-03-27T01:09:20.516Z,101139.38
2023-03-27T01:11:48.042Z,101134.44
2023-03-27T01:14:14.340Z,101128.22
2023-03-27T01:16:40.644Z,101138.88
2023-03-27T01:19:07.009Z,101149.84
2023-03-27T01:21:33.354Z,101153.75
2023-03-27T01:24:00.850Z,101156.56
2023-03-27T01:26:36.350Z,101154.44
2023-03-27T01:29:03.664Z,101166.00
2023-03-27T01:31:30.111Z,101160.47
2023-03-27T01:33:56.460Z,101156.56
2023-03-27T01:36:22.764Z,101166.59
2023-03-27T01:38:49.088Z,101165.25
2023-03-27T01:41:15.398Z,101170.00
2023-03-27T01:43:41.712Z,101182.94
2023-03-27T01:46:08.085Z,101178.09
2023-03-27T01:48:34.430Z,101176.47
2023-03-27T01:51:00.795Z,101184.78
2023-03-27T01:53:27.172Z,101191.44
2023-03-27T01:55:53.548Z,101184.19
2023-03-27T01:58:19.862Z,101192.25
2023-03-27T02:00:51.353Z,101196.06
2023-03-27T02:03:19.592Z,101195.25
2023-03-27T02:05:45.901Z,101195.22
2023-03-27T02:08:12.245Z,101206.16
2023-03-27T02:10:38.597Z,101206.09
2023-03-27T02:13:04.956Z,101201.34
2023-03-27T02:15:31.309Z,101203.78
2023-03-27T02:17:57.702Z,101206.09
2023-03-27T02:20:24.020Z,101202.94
2023-03-27T02:22:50.364Z,101209.41
2023-03-27T02:25:16.780Z,101206.69
2023-03-27T02:27:43.150Z,101219.00
2023-03-27T02:30:09.524Z,101224.47
2023-03-27T02:32:35.973Z,101222.59
2023-03-27T02:35:02.388Z,101221.34
2023-03-27T02:37:32.300Z,101231.69
2023-03-27T02:39:59.553Z,101230.50
2023-03-27T02:42:25.929Z,101239.00
2023-03-27T02:44:52.285Z,101230.06
2023-03-27T02:47:18.603Z,101239.44
2023-03-27T02:49:44.926Z,101243.44
2023-03-27T02:52:11.275Z,101244.63
2023-03-27T02:54:37.614Z,101240.84
2023-03-27T02:57:04.005Z,101242.91
2023-03-27T02:59:30.334Z,101244.25
2023-03-27T03:01:56.640Z,101246.63
2023-03-27T03:04:22.998Z,101254.94
2023-03-27T03:06:49.308Z,101253.72
2023-03-27T03:09:15.633Z,101260.03
2023-03-27T03:11:42.002Z,101264.19
2023-03-27T03:14:08.298Z,101264.03
2023-03-27T03:16:34.683Z,101264.69
2023-03-27T03:19:01.077Z,101272.78
2023-03-27T03:21:27.392Z,101270.81
2023-03-27T03:23:58.017Z,101273.63
2023-03-27T03:26:25.556Z,101278.31
2023-03-27T03:29:00.275Z,101282.56
2023-03-27T03:31:27.575Z,101285.16
2023-03-27T03:33:54.125Z,101291.38
2023-03-27T03:36:20.490Z,101280.78
2023-03-27T03:38:46.840Z,101293.19
2023-03-27T03:41:13.165Z,101287.03
2023-03-27T03:43:39.456Z,101296.13
2023-03-27T03:46:05.935Z,101305.41
2023-03-27T03:48:32.313Z,101312.72
2023-03-27T03:50:58.899Z,101317.28
2023-03-27T03:53:25.435Z,101317.47
2023-03-27T03:55:51.776Z,101318.22
2023-03-27T03:58:18.164Z,101321.59
2023-03-27T04:00:44.480Z,101330.34
2023-03-27T04:03:10.874Z,101335.00
2023-03-27T04:05:37.263Z,101353.44
2023-03-27T04:08:03.579Z,101347.69
2023-03-27T04:10:29.866Z,101350.00
2023-03-27T04:12:56.251Z,101356.25
2023-03-27T04:15:22.546Z,101350.41
2023-03-27T04:17:48.955Z,101359.56
2023-03-27T04:20:15.417Z,101365.34
2023-03-27T04:22:41.739Z,101358.53
2023-03-27T04:25:08.060Z,101369.75
2023-03-27T04:27:34.431Z,101362.44
2023-03-27T04:30:00.744Z,101378.00
2023-03-27T04:32:27.123Z,101386.53
2023-03-27T04:34:53.507Z,101385.75
2023-03-27T04:37:23.115Z,101388.66
2023-03-27T04:39:50.266Z,101395.88
2023-03-27T04:42:16.605Z,101400.88
2023-03-27T04:44:42.921Z,101396.31
2023-03-27T04:47:09.281Z,101400.66
2023-03-27T04:49:35.691Z,101402.09
2023-03-27T04:52:02.041Z,101411.78
2023-03-27T04:54:28.382Z,101418.88
2023-03-27T04:56:54.765Z,101418.81
2023-03-27T04:59:21.148Z,101413.56
2023-03-27T05:01:47.531Z,101426.47
2023-03-27T05:04:13.918Z,101432.28
2023-03-27T05:06:40.747Z,101433.97
2023-03-27T05:09:07.153Z,101441.50
2023-03-27T05:11:33.595Z,101436.28
2023-03-27T05:13:59.964Z,101434.75
2023-03-27T05:16:26.339Z,101440.31
2023-03-27T05:18:52.891Z,101439.53
2023-03-27T05:21:19.288Z,101445.66
2023-03-27T05:23:45.625Z,101448.81
2023-03-27T05:26:11.991Z,101461.22
2023-03-27T05:28:38.335Z,101455.69
2023-03-27T05:31:04.685Z,101465.03
2023-03-27T05:33:31.088Z,101457.16
2023-03-27T05:35:57.563Z,101458.81
2023-03-27T05:38:25.069Z,101470.84
2023-03-27T05:40:51.368Z,101471.25
2023-03-27T05:43:17.667Z,101466.22
2023-03-27T05:45:44.013Z,101470.91
2023-03-27T05:48:10.449Z,101477.56
2023-03-27T05:50:36.821Z,101474.84
2023-03-27T05:53:03.181Z,101490.47
2023-03-27T05:55:29.550Z,101491.16
2023-03-27T05:57:55.863Z,101495.72
2023-03-27T06:00:22.178Z,101495.66
2023-03-27T06:02:48.556Z,101490.28
2023-03-27T06:05:14.909Z,101497.38
2023-03-27T06:07:43.291Z,101502.06
2023-03-27T06:10:13.720Z,101509.44
2023-03-27T06:12:40.499Z,101506.66
2023-03-27T06:15:06.818Z,101506.47
2023-03-27T06:17:33.186Z,101520.50
2023-03-27T06:19:59.534Z,101515.31
2023-03-27T06:22:25.834Z,101522.81
2023-03-27T06:24:52.177Z,101528.16
2023-03-27T06:27:19.611Z,101535.88
2023-03-27T06:29:46.354Z,101532.75
2023-03-27T06:32:12.658Z,101537.94
2023-03-27T06:34:38.993Z,101538.69
2023-03-27T06:37:05.378Z,101542.91
2023-03-27T06:39:31.736Z,101547.75
2023-03-27T06:41:58.099Z,101559.25
2023-03-27T06:44:24.400Z,101553.78
2023-03-27T06:46:50.841Z,101552.53
2023-03-27T06:49:17.181Z,101556.00
2023-03-27T06:51:43.533Z,101561.88
2023-03-27T06:54:09.886Z,101557.69
2023-03-27T06:56:36.234Z,101569.59
2023-03-27T06:59:02.589Z,101575.75
2023-03-27T07:01:29.045Z,101576.03
2023-03-27T07:03:55.377Z,101579.47
2023-03-27T07:06:21.677Z,101579.13
2023-03-27T07:08:49.026Z,101584.97
2023-03-27T07:11:15.800Z,101585.41
2023-03-27T07:13:42.213Z,101593.47
2023-03-27T07:16:08.640Z,101585.69
2023-03-27T07:18:35.059Z,101581.78
2023-03-27T07:21:01.361Z,101579.31
2023-03-27T07:23:27.686Z,101578.66
2023-03-27T07:25:53.998Z,101582.56
2023-03-27T07:28:20.348Z,101585.00
2023-03-27T07:30:46.718Z,101591.63
2023-03-27T07:33:13.273Z,101602.50
2023-03-27T07:35:39.692Z,101593.09
2023-03-27T07:38:06.039Z,101588.66
2023-03-27T07:40:39.430Z,101581.81
2023-03-27T07:43:07.031Z,101580.34
2023-03-27T07:45:33.408Z,101582.50
2023-03-27T07:47:59.817Z,101588.84
2023-03-27T07:50:26.148Z,101593.47
2023-03-27T07:52:52.461Z,101598.38
2023-03-27T07:55:18.754Z,101601.38
2023-03-27T07:57:59.886Z,101601.69
2023-03-27T08:00:28.510Z,101603.53
2023-03-27T08:02:54.929Z,101609.25
2023-03-27T08:05:21.311Z,101607.75
2023-03-27T08:07:47.633Z,101607.31
2023-03-27T08:10:13.932Z,101604.41
2023-03-27T08:12:40.275Z,101608.00
2023-03-27T08:15:06.652Z,101606.03
2023-03-27T08:17:33.231Z,101621.41
2023-03-27T08:19:59.634Z,101624.81
2023-03-27T08:22:25.952Z,101625.22
2023-03-27T08:24:52.356Z,101626.28
2023-03-27T08:27:18.697Z,101638.72
2023-03-27T08:29:44.999Z,101635.72
2023-03-27T08:32:11.353Z,101642.91
2023-03-27T08:34:37.702Z,101651.03
2023-03-27T08:37:04.071Z,101649.59
2023-03-27T08:39:30.402Z,101649.88
2023-03-27T08:41:56.708Z,101654.25
2023-03-27T08:44:23.012Z,101665.13
2023-03-27T08:46:49.359Z,101667.38
2023-03-27T08:49:15.708Z,101666.41
2023-03-27T08:51:42.026Z,101667.00
2023-03-27T08:54:08.408Z,101680.41
2023-03-27T08:56:34.810Z,101681.72
2023-03-27T08:59:01.158Z,101686.41
2023-03-27T09:01:27.455Z,101695.75
2023-03-27T09:03:53.876Z,101693.03
2023-03-27T09:06:20.298Z,101699.31
2023-03-27T09:08:46.659Z,101705.53
2023-03-27T09:11:13.044Z,101709.88
2023-03-27T09:13:39.616Z,101712.34
2023-03-27T09:16:06.029Z,101713.41
2023-03-27T09:18:32.420Z,101716.19
2023-03-27T09:20:58.721Z,101719.38
2023-03-27T09:23:25.105Z,101717.75
2023-03-27T09:25:51.416Z,101726.97
2023-03-27T09:28:17.862Z,101726.38
2023-03-27T09:30:44.249Z,101726.16
2023-03-27T09:33:10.729Z,101727.91
2023-03-27T09:35:37.126Z,101732.28
2023-03-27T09:38:03.491Z,101733.06
2023-03-27T09:40:29.810Z,101727.09
2023-03-27T09:42:56.149Z,101745.03
2023-03-27T09:45:22.474Z,101740.56
2023-03-27T09:47:48.857Z,101736.22
2023-03-27T09:50:15.262Z,101743.19
2023-03-27T09:52:41.584Z,101753.16
2023-03-27T09:55:07.892Z,101751.88
2023-03-27T09:57:34.343Z,101760.00
2023-03-27T10:00:00.706Z,101747.97
2023-03-27T10:02:27.097Z,101757.94
2023-03-27T10:04:53.481Z,101758.44
2023-03-27T10:07:19.840Z,101753.41
2023-03-27T10:09:46.153Z,101760.94
2023-03-27T10:12:12.499Z,101762.59
2023-03-27T10:14:38.796Z,101758.94
2023-03-27T10:17:05.203Z,101759.84
2023-03-27T10:19:31.642Z,101760.56
2023-03-27T10:21:58.002Z,101754.94
2023-03-27T10:24:24.351Z,101752.34
2023-03-27T10:26:50.662Z,101759.47
2023-03-27T10:29:17.008Z,101759.88
2023-03-27T10:31:43.348Z,101755.59
2023-03-27T10:34:09.665Z,101755.06
2023-03-27T10:36:35.986Z,101743.69
2023-03-27T10:39:02.352Z,101757.88
2023-03-27T10:41:28.900Z,101755.78
2023-03-27T10:43:55.636Z,101745.66
2023-03-27T10:46:22.022Z,101769.56
2023-03-27T10:48:48.455Z,101760.75
2023-03-27T10:51:14.760Z,101773.38
2023-03-27T10:53:41.123Z,101761.81
2023-03-27T10:56:07.574Z,101774.25
2023-03-27T10:58:33.930Z,101770.63
2023-03-27T11:01:00.641Z,101767.31
2023-03-27T11:03:27.137Z,101764.81
2023-03-27T11:05:53.447Z,101770.63
2023-03-27T11:08:19.761Z,101764.16
2023-03-27T11:10:46.141Z,101773.84
2023-03-27T11:13:12.508Z,101772.66
2023-03-27T11:15:38.850Z,101773.91
2023-03-27T11:18:05.263Z,101775.81
2023-03-27T11:20:31.576Z,101777.19
2023-03-27T11:22:57.872Z,101780.63
2023-03-27T11:25:24.228Z,101786.44
2023-03-27T11:27:50.594Z,101771.34
2023-03-27T11:30:16.921Z,101785.59
2023-03-27T11:32:43.292Z,101779.16
2023-03-27T11:35:09.689Z,101782.38
2023-03-27T11:37:36.053Z,101787.97
2023-03-27T11:40:02.878Z,101791.09
2023-03-27T11:42:29.216Z,101791.63
2023-03-27T11:44:55.570Z,101789.22
2023-03-27T11:47:21.883Z,101781.81
2023-03-27T11:49:48.192Z,101801.44
2023-03-27T11:52:14.608Z,101795.09
2023-03-27T11:54:40.947Z,101798.19
2023-03-27T11:57:07.341Z,101805.66
2023-03-27T11:59:33.653Z,101803.25
2023-03-27T12:01:59.951Z,101812.28
2023-03-27T12:04:26.331Z,101804.75
2023-03-27T12:06:52.688Z,101802.31
2023-03-27T12:09:19.017Z,101813.69
2023-03-27T12:11:45.357Z,101818.09
2023-03-27T12:14:18.077Z,101817.28
2023-03-27T12:16:44.759Z,101814.69
2023-03-27T12:19:26.981Z,101817.91
2023-03-27T12:21:55.192Z,101821.69
2023-03-27T12:24:21.565Z,101820.56
2023-03-27T12:26:48.042Z,101819.63
2023-03-27T12:29:23.562Z,101817.75
2023-03-27T12:31:50.656Z,101807.25
2023-03-27T12:34:17.054Z,101815.78
2023-03-27T12:36:43.392Z,101819.28
2023-03-27T12:39:09.810Z,101818.81
2023-03-27T12:41:36.165Z,101820.53
2023-03-27T12:44:02.469Z,101814.53
2023-03-27T12:46:28.860Z,101810.84
2023-03-27T12:48:55.269Z,101808.31
2023-03-27T12:51:21.568Z,101806.50
2023-03-27T12:53:47.930Z,101811.16
2023-03-27T12:56:14.287Z,101811.75
2023-03-27T12:58:40.635Z,101815.50
2023-03-27T13:01:07.103Z,101807.47
2023-03-27T13:03:33.540Z,101814.03
2023-03-27T13:05:59.968Z,101812.91
2023-03-27T13:08:26.406Z,101807.81
2023-03-27T13:10:52.751Z,101815.13
2023-03-27T13:13:19.049Z,101808.97
2023-03-27T13:15:45.369Z,101814.75
2023-03-27T13:18:11.746Z,101811.03
2023-03-27T13:20:38.082Z,101811.38
2023-03-27T13:23:04.407Z,101802.84
2023-03-27T13:25:30.738Z,101802.34
2023-03-27T13:27:57.072Z,101807.72
2023-03-27T13:30:23.426Z,101800.59
2023-03-27T13:32:49.788Z,101800.84
2023-03-27T13:35:16.147Z,101792.91
2023-03-27T13:37:42.473Z,101795.91
2023-03-27T13:40:08.780Z,101793.25
2023-03-27T13:42:35.148Z,101795.19
2023-03-27T13:45:01.479Z,101798.50
2023-03-27T13:47:27.850Z,101800.59
2023-03-27T13:49:54.186Z,101797.59
2023-03-27T13:52:20.498Z,101806.97
2023-03-27T13:54:46.920Z,101799.19
2023-03-27T13:57:13.323Z,101809.47
2023-03-27T13:59:39.729Z,101811.41
2023-03-27T14:02:06.333Z,101806.31
2023-03-27T14:04:32.735Z,101803.28
2023-03-27T14:06:59.206Z,101807.31
2023-03-27T14:09:25.516Z,101809.47
2023-03-27T14:11:51.836Z,101811.53
2023-03-27T14:14:18.485Z,101812.13
2023-03-27T14:16:44.983Z,101812.59
2023-03-27T14:19:11.394Z,101817.81
2023-03-27T14:21:39.102Z,101815.53
2023-03-27T14:24:05.560Z,101814.59
2023-03-27T14:26:32.000Z,101817.66
2023-03-27T14:28:58.333Z,101814.31
2023-03-27T14:31:24.657Z,101808.25
2023-03-27T14:33:51.034Z,101801.69
2023-03-27T14:36:17.527Z,101810.53
2023-03-27T14:38:43.877Z,101824.97
2023-03-27T14:41:10.241Z,101823.84
2023-03-27T14:43:36.625Z,101823.31
2023-03-27T14:46:02.994Z,101824.44
2023-03-27T14:48:29.370Z,101825.38
2023-03-27T14:50:55.930Z,101821.00
2023-03-27T14:53:22.492Z,101817.91
2023-03-27T14:55:48.814Z,101822.13
2023-03-27T14:58:15.116Z,101817.91
2023-03-27T15:00:41.405Z,101826.44
2023-03-27T15:03:07.752Z,101816.66
2023-03-27T15:05:34.083Z,101821.28
2023-03-27T15:08:00.435Z,101809.94
2023-03-27T15:10:26.867Z,101808.50
2023-03-27T15:12:53.221Z,101812.31
2023-03-27T15:15:19.528Z,101800.59
2023-03-27T15:17:45.856Z,101803.53
2023-03-27T15:20:12.158Z,101801.41
2023-03-27T15:22:38.496Z,101818.59
2023-03-27T15:25:04.844Z,101822.13
2023-03-27T15:27:31.179Z,101824.59
2023-03-27T15:29:57.545Z,101824.50
2023-03-27T15:32:24.023Z,101823.84
2023-03-27T15:34:50.395Z,101828.72
2023-03-27T15:37:16.744Z,101827.06
2023-03-27T15:39:43.049Z,101830.59
2023-03-27T15:42:09.398Z,101828.34
2023-03-27T15:44:35.690Z,101830.00
2023-03-27T15:47:02.081Z,101832.28
2023-03-27T15:49:28.513Z,101831.84
2023-03-27T15:51:54.866Z,101828.38
2023-03-27T15:54:21.180Z,101834.66
2023-03-27T15:56:47.551Z,101833.84
2023-03-27T15:59:13.913Z,101837.69
2023-03-27T16:01:40.242Z,101830.66
2023-03-27T16:04:06.621Z,101837.34
2023-03-27T16:06:33.162Z,101835.38
2023-03-27T16:08:59.503Z,101838.72
2023-03-27T16:11:25.848Z,101834.50
2023-03-27T16:13:52.237Z,101830.50
2023-03-27T16:16:18.664Z,101828.00
2023-03-27T16:18:45.019Z,101828.34
2023-03-27T16:21:11.367Z,101832.25
2023-03-27T16:23:37.726Z,101827.56
2023-03-27T16:26:04.060Z,101829.09
2023-03-27T16:28:30.450Z,101835.50
2023-03-27T16:30:56.770Z,101834.28
2023-03-27T16:33:23.119Z,101839.78
2023-03-27T16:35:49.496Z,101845.56
2023-03-27T16:38:15.813Z,101841.28
2023-03-27T16:40:42.108Z,101833.94
2023-03-27T16:43:08.422Z,101840.84
2023-03-27T16:45:34.822Z,101843.97
2023-03-27T16:48:01.175Z,101843.63
2023-03-27T16:50:27.546Z,101842.84
2023-03-27T16:52:53.908Z,101837.75
2023-03-27T16:55:20.232Z,101840.22
2023-03-27T16:57:46.591Z,101843.66
2023-03-27T17:00:12.903Z,101847.16
2023-03-27T17:02:39.222Z,101844.41
2023-03-27T17:05:05.652Z,101840.13
2023-03-27T17:07:31.980Z,101847.94
2023-03-27T17:09:58.281Z,101849.41
2023-03-27T17:12:24.575Z,101850.66
2023-03-27T17:14:50.931Z,101850.66
2023-03-27T17:17:17.324Z,101847.16
2023-03-27T17:19:43.699Z,101844.75
2023-03-27T17:22:10.004Z,101846.69
2023-03-27T17:24:49.189Z,101848.59
2023-03-27T17:27:22.171Z,101853.44
2023-03-27T17:29:48.570Z,101849.78
2023-03-27T17:32:14.917Z,101861.97
2023-03-27T17:34:41.227Z,101853.03
2023-03-27T17:37:07.534Z,101846.34
2023-03-27T17:39:33.887Z,101862.41
2023-03-27T17:42:00.221Z,101865.03
2023-03-27T17:44:26.890Z,101870.97
2023-03-27T17:46:53.319Z,101874.81
2023-03-27T17:49:19.700Z,101870.63
2023-03-27T17:51:46.045Z,101874.47
2023-03-27T17:54:12.402Z,101871.31
2023-03-27T17:56:38.752Z,101874.91
2023-03-27T17:59:05.143Z,101877.63
2023-03-27T18:01:31.516Z,101873.75
2023-03-27T18:03:57.931Z,101875.25
2023-03-27T18:06:24.364Z,101875.69
2023-03-27T18:08:50.668Z,101888.59
2023-03-27T18:11:17.030Z,101884.59
2023-03-27T18:13:43.446Z,101881.09
2023-03-27T18:16:09.857Z,101883.09
2023-03-27T18:18:36.243Z,101889.41
2023-03-27T18:21:02.557Z,101890.97
2023-03-27T18:23:29.017Z,101886.28
2023-03-27T18:25:55.549Z,101893.25
2023-03-27T18:28:22.063Z,101885.75
2023-03-27T18:30:48.451Z,101898.34
2023-03-27T18:33:14.759Z,101891.34
2023-03-27T18:35:41.085Z,101893.59
2023-03-27T18:38:07.501Z,101893.25
2023-03-27T18:40:33.852Z,101900.22
2023-03-27T18:43:00.228Z,101904.09
2023-03-27T18:45:26.604Z,101903.72
2023-03-27T18:47:52.920Z,101903.03
2023-03-27T18:50:19.247Z,101904.16
2023-03-27T18:52:45.591Z,101907.25
2023-03-27T18:55:11.947Z,101915.06
2023-03-27T18:57:38.307Z,101915.81
2023-03-27T19:00:04.720Z,101918.50
2023-03-27T19:02:31.219Z,101918.19
2023-03-27T19:04:57.586Z,101922.78
2023-03-27T19:07:23.903Z,101925.94
2023-03-27T19:09:50.277Z,101927.16
2023-03-27T19:12:16.599Z,101932.63
2023-03-27T19:14:43.036Z,101933.75
2023-03-27T19:17:09.371Z,101928.31
2023-03-27T19:19:35.753Z,101929.91
2023-03-27T19:22:02.092Z,101926.13
2023-03-27T19:24:28.403Z,101925.38
2023-03-27T19:26:54.759Z,101927.28
2023-03-27T19:29:21.160Z,101926.84
2023-03-27T19:31:47.474Z,101934.22
2023-03-27T19:34:13.851Z,101934.59
2023-03-27T19:36:40.167Z,101929.13
2023-03-27T19:39:06.513Z,101933.03
2023-03-27T19:41:32.832Z,101936.44
2023-03-27T19:44:00.361Z,101936.88
2023-03-27T19:46:26.981Z,101940.81
2023-03-27T19:48:53.318Z,101934.97
2023-03-27T19:51:19.619Z,101940.81
2023-03-27T19:53:45.968Z,101943.88
2023-03-27T19:56:12.273Z,101945.53
2023-03-27T19:58:38.561Z,101940.03
2023-03-27T20:01:04.947Z,101944.41
2023-03-27T20:03:31.407Z,101944.69
2023-03-27T20:06:07.861Z,101950.50
2023-03-27T20:08:35.194Z,101947.78
2023-03-27T20:11:01.765Z,101948.59
2023-03-27T20:13:28.182Z,101942.75
2023-03-27T20:15:54.535Z,101948.97
2023-03-27T20:18:20.941Z,101951.78
2023-03-27T20:20:47.246Z,101944.03
2023-03-27T20:23:13.607Z,101935.84
2023-03-27T20:25:39.906Z,101938.22
2023-03-27T20:28:06.277Z,101945.56
2023-03-27T20:30:32.636Z,101945.56
2023-03-27T20:32:59.132Z,101944.03
2023-03-27T20:35:25.556Z,101942.06
2023-03-27T20:37:51.885Z,101938.88
2023-03-27T20:40:18.232Z,101936.63
2023-03-27T20:42:44.555Z,101937.03
2023-03-27T20:45:10.858Z,101941.25
2023-03-27T20:47:37.203Z,101948.69
2023-03-27T20:50:03.607Z,101948.28
2023-03-27T20:52:29.995Z,101947.53
2023-03-27T20:54:56.347Z,101950.19
2023-03-27T20:57:22.710Z,101943.94
2023-03-27T20:59:49.092Z,101949.38
2023-03-27T21:02:15.481Z,101950.50
2023-03-27T21:04:41.866Z,101947.44
2023-03-27T21:07:08.309Z,101949.03
2023-03-27T21:09:34.638Z,101951.41
2023-03-27T21:12:00.952Z,101957.19
2023-03-27T21:14:27.312Z,101951.75
2023-03-27T21:16:53.647Z,101954.91
2023-03-27T21:19:20.049Z,101972.03
2023-03-27T21:21:46.372Z,101965.84
2023-03-27T21:24:12.723Z,101958.84
2023-03-27T21:26:39.200Z,101960.31
2023-03-27T21:29:05.655Z,101966.09
2023-03-27T21:31:32.033Z,101970.44
2023-03-27T21:33:58.443Z,101965.00
2023-03-27T21:36:27.137Z,101956.47
2023-03-27T21:38:55.220Z,101955.28
2023-03-27T21:41:21.596Z,101960.75
2023-03-27T21:43:47.945Z,101956.03
2023-03-27T21:46:14.328Z,101947.13
2023-03-27T21:48:40.678Z,101954.09
2023-03-27T21:51:07.043Z,101955.69
2023-03-27T21:53:33.366Z,101958.81
2023-03-27T21:55:59.948Z,101958.41
2023-03-27T21:58:26.378Z,101967.34
2023-03-27T22:00:52.732Z,101958.00
2023-03-27T22:03:19.073Z,101952.91
2023-03-27T22:05:54.257Z,101953.31
2023-03-27T22:08:27.709Z,101949.06
2023-03-27T22:10:54.127Z,101954.19
2023-03-27T22:13:20.477Z,101950.59
2023-03-27T22:15:46.908Z,101951.84
2023-03-27T22:18:13.347Z,101953.88
2023-03-27T22:20:39.667Z,101959.22
2023-03-27T22:23:06.024Z,101961.19
2023-03-27T22:25:32.354Z,101964.28
2023-03-27T22:28:00.551Z,101963.16
2023-03-27T22:30:28.025Z,101964.34
2023-03-27T22:32:54.344Z,101966.72
2023-03-27T22:35:20.752Z,101963.97
2023-03-27T22:37:47.113Z,101959.34
2023-03-27T22:40:13.487Z,101964.03
2023-03-27T22:42:39.843Z,101974.53
2023-03-27T22:45:06.192Z,101972.41
2023-03-27T22:47:32.538Z,101962.81
2023-03-27T22:49:58.851Z,101961.22
2023-03-27T22:52:25.185Z,101966.72
2023-03-27T22:54:51.496Z,101966.72
2023-03-27T22:57:17.833Z,101961.63
2023-03-27T22:59:44.209Z,101963.16
2023-03-27T23:02:10.587Z,101970.56
2023-03-27T23:04:36.946Z,101967.88
2023-03-27T23:07:03.303Z,101970.22
2023-03-27T23:09:29.610Z,101960.50
2023-03-27T23:11:55.928Z,101968.25
2023-03-27T23:14:22.274Z,101977.25
2023-03-27T23:16:48.617Z,101970.59
2023-03-27T23:19:14.966Z,101980.38
2023-03-27T23:21:41.315Z,101975.69
2023-03-27T23:24:07.632Z,101967.53
2023-03-27T23:26:33.941Z,101972.97
2023-03-27T23:29:00.246Z,101983.13
2023-03-27T23:31:26.584Z,101979.22
2023-03-27T23:33:53.012Z,101973.00
2023-03-27T23:36:19.377Z,101971.41
2023-03-27T23:38:45.758Z,101972.25
2023-03-27T23:41:12.127Z,101979.25
2023-03-27T23:43:38.442Z,101977.31
2023-03-27T23:46:04.965Z,101984.69
2023-03-27T23:48:31.310Z,101975.72
2023-03-27T23:50:57.627Z,101980.41
2023-03-27T23:53:23.996Z,101973.41
2023-03-27T23:55:50.297Z,101971.81
2023-03-27T23:58:16.667Z,101971.13
